sensor_id;sensor_type;location;lat;lon;timestamp;pressure;altitude;pressure_sealevel;temperature;humidity
7832;BME280;3961;42.058;25.586;2022-08-18T00:00:49;65066.72;;;24.97;67.98
7832;BME280;3961;42.058;25.586;2022-08-18T00:03:15;65050.84;;;24.83;68.71
7832;BME280;3961;42.058;25.586;2022-08-18T00:05:43;65049.91;;;24.85;69.41
7832;BME280;3961;42.058;25.586;2022-08-18T00:08:09;65049.69;;;24.82;69.20
7832;BME280;3961;42.058;25.586;2022-08-18T00:10:35;65040.72;;;24.79;69.13
7832;BME280;3961;42.058;25.586;2022-08-18T00:13:04;65018.81;;;24.58;70.36
7832;BME280;3961;42.058;25.586;2022-08-18T00:15:30;65003.94;;;24.42;71.39
7832;BME280;3961;42.058;25.586;2022-08-18T00:17:56;65006.72;;;24.50;71.15
7832;BME280;3961;42.058;25.586;2022-08-18T00:20:23;65019.25;;;24.63;70.69
7832;BME280;3961;42.058;25.586;2022-08-18T00:22:50;64996.13;;;24.33;70.71
7832;BME280;3961;42.058;25.586;2022-08-18T00:25:17;65021.16;;;24.60;70.51
7832;BME280;3961;42.058;25.586;2022-08-18T00:27:43;65005.19;;;24.51;70.71
7832;BME280;3961;42.058;25.586;2022-08-18T00:30:14;65001.81;;;24.43;71.39
7832;BME280;3961;42.058;25.586;2022-08-18T00:32:42;64992.66;;;24.37;71.63
7832;BME280;3961;42.058;25.586;2022-08-18T00:35:22;64987.16;;;24.30;71.88
7832;BME280;3961;42.058;25.586;2022-08-18T00:37:52;64991.66;;;24.32;72.11
7832;BME280;3961;42.058;25.586;2022-08-18T00:40:23;64979.91;;;24.22;71.98
7832;BME280;3961;42.058;25.586;2022-08-18T00:43:02;64974.47;;;24.22;72.07
7832;BME280;3961;42.058;25.586;2022-08-18T00:45:33;64965.44;;;24.11;72.78
7832;BME280;3961;42.058;25.586;2022-08-18T00:48:01;64957.63;;;24.02;73.25
7832;BME280;3961;42.058;25.586;2022-08-18T00:50:33;64957.63;;;24.02;72.84
7832;BME280;3961;42.058;25.586;2022-08-18T00:53:08;64968.38;;;24.14;72.65
7832;BME280;3961;42.058;25.586;2022-08-18T00:55:35;64942.03;;;23.91;73.19
7832;BME280;3961;42.058;25.586;2022-08-18T00:58:08;64944.81;;;23.98;73.42
7832;BME280;3961;42.058;25.586;2022-08-18T01:00:35;64948.47;;;23.97;73.30
7832;BME280;3961;42.058;25.586;2022-08-18T01:03:04;64923.84;;;23.75;73.18
7832;BME280;3961;42.058;25.586;2022-08-18T01:05:39;64947.31;;;23.96;73.42
7832;BME280;3961;42.058;25.586;2022-08-18T01:08:08;64938.72;;;23.91;73.35
7832;BME280;3961;42.058;25.586;2022-08-18T01:10:37;64942.59;;;23.92;73.58
7832;BME280;3961;42.058;25.586;2022-08-18T01:13:03;64919.97;;;23.74;73.67
7832;BME280;3961;42.058;25.586;2022-08-18T01:15:30;64938.88;;;23.86;73.05
7832;BME280;3961;42.058;25.586;2022-08-18T01:17:58;64927.97;;;23.79;73.52
7832;BME280;3961;42.058;25.586;2022-08-18T01:21:20;64920.56;;;23.75;73.59
7832;BME280;3961;42.058;25.586;2022-08-18T01:24:10;64916.25;;;23.69;73.88
7832;BME280;3961;42.058;25.586;2022-08-18T01:26:40;64909.81;;;23.63;74.42
7832;BME280;3961;42.058;25.586;2022-08-18T01:29:11;64898.31;;;23.56;74.77
7832;BME280;3961;42.058;25.586;2022-08-18T01:31:43;64911.19;;;23.67;74.17
7832;BME280;3961;42.058;25.586;2022-08-18T01:34:11;64918.59;;;23.71;74.15
7832;BME280;3961;42.058;25.586;2022-08-18T01:36:39;64931.03;;;23.77;74.17
7832;BME280;3961;42.058;25.586;2022-08-18T01:39:09;64918.97;;;23.69;74.64
7832;BME280;3961;42.058;25.586;2022-08-18T01:41:34;64910.75;;;23.62;74.98
7832;BME280;3961;42.058;25.586;2022-08-18T01:44:01;64906.06;;;23.58;75.03
7832;BME280;3961;42.058;25.586;2022-08-18T01:46:30;64879.53;;;23.39;75.54
7832;BME280;3961;42.058;25.586;2022-08-18T01:48:56;64883.06;;;23.42;75.74
7832;BME280;3961;42.058;25.586;2022-08-18T01:51:27;64885.19;;;23.42;76.64
7832;BME280;3961;42.058;25.586;2022-08-18T01:53:54;64879.34;;;23.37;76.78
7832;BME280;3961;42.058;25.586;2022-08-18T01:56:21;64875.81;;;23.34;76.75
7832;BME280;3961;42.058;25.586;2022-08-18T01:58:46;64877.00;;;23.35;76.90
7832;BME280;3961;42.058;25.586;2022-08-18T02:01:14;64867.84;;;23.29;76.49
7832;BME280;3961;42.058;25.586;2022-08-18T02:03:44;64871.13;;;23.30;76.78
7832;BME280;3961;42.058;25.586;2022-08-18T02:06:13;64875.59;;;23.31;77.07
7832;BME280;3961;42.058;25.586;2022-08-18T02:08:39;64858.47;;;23.21;77.61
7832;BME280;3961;42.058;25.586;2022-08-18T02:11:06;64872.53;;;23.33;76.64
7832;BME280;3961;42.058;25.586;2022-08-18T02:13:32;64872.31;;;23.31;77.19
7832;BME280;3961;42.058;25.586;2022-08-18T02:15:59;64851.44;;;23.15;77.53
7832;BME280;3961;42.058;25.586;2022-08-18T02:18:28;64890.22;;;23.44;76.14
7832;BME280;3961;42.058;25.586;2022-08-18T02:20:56;64853.78;;;23.17;77.57
7832;BME280;3961;42.058;25.586;2022-08-18T02:23:22;64857.66;;;23.18;77.70
7832;BME280;3961;42.058;25.586;2022-08-18T02:25:48;64847.47;;;23.07;78.10
7832;BME280;3961;42.058;25.586;2022-08-18T02:28:14;64827.22;;;22.92;78.80
7832;BME280;3961;42.058;25.586;2022-08-18T02:30:40;64806.72;;;22.74;79.22
7832;BME280;3961;42.058;25.586;2022-08-18T02:33:08;64799.72;;;22.68;79.64
7832;BME280;3961;42.058;25.586;2022-08-18T02:35:34;64808.09;;;22.77;80.03
7832;BME280;3961;42.058;25.586;2022-08-18T02:38:01;64818.09;;;22.86;79.52
7832;BME280;3961;42.058;25.586;2022-08-18T02:40:27;64815.75;;;22.84;80.06
7832;BME280;3961;42.058;25.586;2022-08-18T02:42:54;64818.44;;;22.84;79.92
7832;BME280;3961;42.058;25.586;2022-08-18T02:45:20;64815.97;;;22.87;79.83
7832;BME280;3961;42.058;25.586;2022-08-18T02:47:55;64827.22;;;22.92;80.02
7832;BME280;3961;42.058;25.586;2022-08-18T02:50:20;64819.03;;;22.85;79.94
7832;BME280;3961;42.058;25.586;2022-08-18T02:52:46;64818.44;;;22.84;80.32
7832;BME280;3961;42.058;25.586;2022-08-18T02:55:12;64804.59;;;22.74;80.68
7832;BME280;3961;42.058;25.586;2022-08-18T02:57:43;64815.38;;;22.86;80.25
7832;BME280;3961;42.058;25.586;2022-08-18T03:00:12;64796.19;;;22.65;81.26
7832;BME280;3961;42.058;25.586;2022-08-18T03:02:47;64794.66;;;22.66;81.70
7832;BME280;3961;42.058;25.586;2022-08-18T03:05:14;64791.72;;;22.63;81.97
7832;BME280;3961;42.058;25.586;2022-08-18T03:07:40;64778.06;;;22.49;82.54
7832;BME280;3961;42.058;25.586;2022-08-18T03:10:06;64787.06;;;22.59;82.23
7832;BME280;3961;42.058;25.586;2022-08-18T03:12:31;64784.72;;;22.57;82.48
7832;BME280;3961;42.058;25.586;2022-08-18T03:14:57;64787.63;;;22.60;82.51
7832;BME280;3961;42.058;25.586;2022-08-18T03:17:26;64763.66;;;22.39;82.71
7832;BME280;3961;42.058;25.586;2022-08-18T03:19:52;64772.19;;;22.44;82.99
7832;BME280;3961;42.058;25.586;2022-08-18T03:22:18;64771.41;;;22.41;83.46
7832;BME280;3961;42.058;25.586;2022-08-18T03:24:44;64776.66;;;22.45;83.31
7832;BME280;3961;42.058;25.586;2022-08-18T03:27:09;64774.75;;;22.49;82.91
7832;BME280;3961;42.058;25.586;2022-08-18T03:29:35;64782.16;;;22.53;82.08
7832;BME280;3961;42.058;25.586;2022-08-18T03:32:04;64776.50;;;22.50;82.28
7832;BME280;3961;42.058;25.586;2022-08-18T03:34:29;64779.34;;;22.45;82.62
7832;BME280;3961;42.058;25.586;2022-08-18T03:36:55;64779.81;;;22.51;82.65
7832;BME280;3961;42.058;25.586;2022-08-18T03:39:21;64762.84;;;22.36;83.18
7832;BME280;3961;42.058;25.586;2022-08-18T03:41:50;64765.78;;;22.38;83.31
7832;BME280;3961;42.058;25.586;2022-08-18T03:44:19;64782.72;;;22.53;82.74
7832;BME280;3961;42.058;25.586;2022-08-18T03:46:44;64780.97;;;22.52;83.06
7832;BME280;3961;42.058;25.586;2022-08-18T03:49:11;64795.63;;;22.64;82.27
7832;BME280;3961;42.058;25.586;2022-08-18T03:51:40;64799.34;;;22.70;81.35
7832;BME280;3961;42.058;25.586;2022-08-18T03:54:08;64792.69;;;22.62;81.79
7832;BME280;3961;42.058;25.586;2022-08-18T03:56:36;64787.41;;;22.57;82.61
7832;BME280;3961;42.058;25.586;2022-08-18T03:59:05;64818.81;;;22.82;81.82
7832;BME280;3961;42.058;25.586;2022-08-18T04:01:35;64848.28;;;23.10;80.63
7832;BME280;3961;42.058;25.586;2022-08-18T04:04:04;64860.00;;;23.20;79.67
7832;BME280;3961;42.058;25.586;2022-08-18T04:06:32;64902.78;;;23.57;78.43
7832;BME280;3961;42.058;25.586;2022-08-18T04:09:03;64948.25;;;23.94;76.51
7832;BME280;3961;42.058;25.586;2022-08-18T04:11:31;64994.41;;;24.39;74.69
7832;BME280;3961;42.058;25.586;2022-08-18T04:13:57;65043.81;;;24.77;72.35
7832;BME280;3961;42.058;25.586;2022-08-18T04:16:27;65070.81;;;25.00;70.79
7832;BME280;3961;42.058;25.586;2022-08-18T04:18:53;65097.44;;;25.26;69.16
7832;BME280;3961;42.058;25.586;2022-08-18T04:21:20;65144.97;;;25.67;67.89
7832;BME280;3961;42.058;25.586;2022-08-18T04:23:45;65150.25;;;25.71;66.98
7832;BME280;3961;42.058;25.586;2022-08-18T04:26:11;65157.88;;;25.78;66.82
7832;BME280;3961;42.058;25.586;2022-08-18T04:28:37;65212.50;;;26.25;65.89
7832;BME280;3961;42.058;25.586;2022-08-18T04:31:12;65234.25;;;26.44;64.24
7832;BME280;3961;42.058;25.586;2022-08-18T04:33:39;65251.66;;;26.57;63.40
7832;BME280;3961;42.058;25.586;2022-08-18T04:36:14;65294.19;;;26.96;62.73
7832;BME280;3961;42.058;25.586;2022-08-18T04:38:40;65269.31;;;26.79;62.51
7832;BME280;3961;42.058;25.586;2022-08-18T04:41:07;65309.25;;;27.06;62.05
7832;BME280;3961;42.058;25.586;2022-08-18T04:43:33;65335.31;;;27.31;61.83
7832;BME280;3961;42.058;25.586;2022-08-18T04:45:59;65376.66;;;27.62;60.41
7832;BME280;3961;42.058;25.586;2022-08-18T04:48:35;65376.50;;;27.67;60.79
7832;BME280;3961;42.058;25.586;2022-08-18T04:51:16;65399.25;;;27.84;59.84
7832;BME280;3961;42.058;25.586;2022-08-18T04:53:43;65427.69;;;28.11;58.88
7832;BME280;3961;42.058;25.586;2022-08-18T04:56:24;65464.41;;;28.45;58.05
7832;BME280;3961;42.058;25.586;2022-08-18T04:58:55;65489.09;;;28.66;57.44
7832;BME280;3961;42.058;25.586;2022-08-18T05:01:24;65525.78;;;28.93;56.58
7832;BME280;3961;42.058;25.586;2022-08-18T05:03:51;65562.88;;;29.25;54.79
7832;BME280;3961;42.058;25.586;2022-08-18T05:06:19;65597.28;;;29.57;54.70
7832;BME280;3961;42.058;25.586;2022-08-18T05:08:45;65602.00;;;29.61;54.28
7832;BME280;3961;42.058;25.586;2022-08-18T05:11:13;65625.00;;;29.81;53.83
7832;BME280;3961;42.058;25.586;2022-08-18T05:13:39;65596.31;;;29.59;53.17
7832;BME280;3961;42.058;25.586;2022-08-18T05:16:05;65600.63;;;29.58;53.85
7832;BME280;3961;42.058;25.586;2022-08-18T05:18:35;65600.81;;;29.60;53.55
7832;BME280;3961;42.058;25.586;2022-08-18T05:21:06;65583.16;;;29.45;53.84
7832;BME280;3961;42.058;25.586;2022-08-18T05:23:42;65576.66;;;29.39;54.32
7832;BME280;3961;42.058;25.586;2022-08-18T05:26:09;65548.00;;;29.17;54.98
7832;BME280;3961;42.058;25.586;2022-08-18T05:28:35;65511.88;;;28.84;55.46
7832;BME280;3961;42.058;25.586;2022-08-18T05:31:14;65488.91;;;28.64;56.99
7832;BME280;3961;42.058;25.586;2022-08-18T05:33:40;65478.09;;;28.52;57.06
7832;BME280;3961;42.058;25.586;2022-08-18T05:41:36;65441.97;;;28.19;57.35
7832;BME280;3961;42.058;25.586;2022-08-18T05:44:03;65431.81;;;28.15;56.71
7832;BME280;3961;42.058;25.586;2022-08-18T05:46:41;65391.22;;;27.80;58.73
7832;BME280;3961;42.058;25.586;2022-08-18T05:49:10;65401.44;;;27.91;58.85
7832;BME280;3961;42.058;25.586;2022-08-18T05:51:41;65405.53;;;27.94;59.16
7832;BME280;3961;42.058;25.586;2022-08-18T05:54:08;65406.50;;;27.93;59.25
7832;BME280;3961;42.058;25.586;2022-08-18T05:57:03;65433.56;;;28.16;58.49
7832;BME280;3961;42.058;25.586;2022-08-18T05:59:35;65437.09;;;28.19;57.66
7832;BME280;3961;42.058;25.586;2022-08-18T06:05:00;65470.28;;;28.50;57.12
7832;BME280;3961;42.058;25.586;2022-08-18T06:07:35;65457.69;;;28.37;56.96
7832;BME280;3961;42.058;25.586;2022-08-18T06:10:03;65466.75;;;28.47;57.09
7832;BME280;3961;42.058;25.586;2022-08-18T06:12:36;65474.56;;;28.49;56.92
7832;BME280;3961;42.058;25.586;2022-08-18T06:15:28;65478.69;;;28.53;57.08
7832;BME280;3961;42.058;25.586;2022-08-18T06:26:30;65492.81;;;28.65;56.84
7832;BME280;3961;42.058;25.586;2022-08-18T06:29:26;65478.91;;;28.55;56.47
7832;BME280;3961;42.058;25.586;2022-08-18T06:38:02;65475.59;;;28.55;57.42
7832;BME280;3961;42.058;25.586;2022-08-18T06:41:07;65491.41;;;28.61;57.94
7832;BME280;3961;42.058;25.586;2022-08-18T06:43:36;65491.03;;;28.63;57.13
7832;BME280;3961;42.058;25.586;2022-08-18T06:46:08;65511.28;;;28.83;56.58
7832;BME280;3961;42.058;25.586;2022-08-18T06:51:10;65526.19;;;28.91;55.85
7832;BME280;3961;42.058;25.586;2022-08-18T06:54:34;65529.91;;;28.97;55.70
7832;BME280;3961;42.058;25.586;2022-08-18T06:59:35;65564.66;;;29.27;54.40
7832;BME280;3961;42.058;25.586;2022-08-18T07:05:05;65609.28;;;29.70;53.50
7832;BME280;3961;42.058;25.586;2022-08-18T07:07:37;65626.38;;;29.85;53.33
7832;BME280;3961;42.058;25.586;2022-08-18T07:12:38;65665.69;;;30.16;52.20
7832;BME280;3961;42.058;25.586;2022-08-18T07:15:06;65688.66;;;30.36;52.23
7832;BME280;3961;42.058;25.586;2022-08-18T07:17:36;65713.06;;;30.59;51.79
7832;BME280;3961;42.058;25.586;2022-08-18T07:22:59;65725.25;;;30.67;50.94
7832;BME280;3961;42.058;25.586;2022-08-18T07:25:38;65787.00;;;31.18;49.58
7832;BME280;3961;42.058;25.586;2022-08-18T07:28:05;65826.53;;;31.52;49.39
7832;BME280;3961;42.058;25.586;2022-08-18T07:30:36;65811.41;;;31.42;48.09
7832;BME280;3961;42.058;25.586;2022-08-18T07:35:49;65867.28;;;31.87;47.24
7832;BME280;3961;42.058;25.586;2022-08-18T07:40:57;65926.97;;;32.38;46.81
7832;BME280;3961;42.058;25.586;2022-08-18T07:43:35;65952.53;;;32.56;45.92
7832;BME280;3961;42.058;25.586;2022-08-18T07:46:13;65969.31;;;32.72;45.59
7832;BME280;3961;42.058;25.586;2022-08-18T07:48:40;65986.47;;;32.87;45.02
7832;BME280;3961;42.058;25.586;2022-08-18T07:51:22;66000.25;;;33.01;44.61
7832;BME280;3961;42.058;25.586;2022-08-18T07:56:26;66018.78;;;33.20;43.66
7832;BME280;3961;42.058;25.586;2022-08-18T07:59:23;66042.66;;;33.35;43.05
7832;BME280;3961;42.058;25.586;2022-08-18T08:02:22;66035.75;;;33.32;42.80
7832;BME280;3961;42.058;25.586;2022-08-18T08:07:52;66110.50;;;33.98;41.51
7832;BME280;3961;42.058;25.586;2022-08-18T08:18:11;66163.56;;;34.42;39.85
7832;BME280;3961;42.058;25.586;2022-08-18T08:20:53;66138.28;;;34.22;40.30
7832;BME280;3961;42.058;25.586;2022-08-18T08:26:27;66191.78;;;34.63;40.04
7832;BME280;3961;42.058;25.586;2022-08-18T08:31:44;66167.31;;;34.47;38.88
7832;BME280;3961;42.058;25.586;2022-08-18T08:36:43;66200.66;;;34.71;37.95
7832;BME280;3961;42.058;25.586;2022-08-18T08:39:11;66228.91;;;34.93;37.74
7832;BME280;3961;42.058;25.586;2022-08-18T08:41:46;66208.19;;;34.82;37.01
7832;BME280;3961;42.058;25.586;2022-08-18T08:49:52;66231.06;;;34.99;36.41
7832;BME280;3961;42.058;25.586;2022-08-18T08:52:26;66245.06;;;35.09;36.35
7832;BME280;3961;42.058;25.586;2022-08-18T08:55:13;66276.13;;;35.38;35.21
7832;BME280;3961;42.058;25.586;2022-08-18T08:57:48;66269.59;;;35.32;35.11
7832;BME280;3961;42.058;25.586;2022-08-18T09:00:14;66295.44;;;35.52;34.36
7832;BME280;3961;42.058;25.586;2022-08-18T09:24:08;66325.50;;;35.83;33.68
7832;BME280;3961;42.058;25.586;2022-08-18T09:26:48;66359.47;;;36.07;33.71
7832;BME280;3961;42.058;25.586;2022-08-18T09:29:45;66389.16;;;36.32;33.46
7832;BME280;3961;42.058;25.586;2022-08-18T09:35:08;66387.56;;;36.33;32.76
7832;BME280;3961;42.058;25.586;2022-08-18T09:37:49;66401.56;;;36.43;31.88
7832;BME280;3961;42.058;25.586;2022-08-18T09:40:51;66391.72;;;36.37;31.90
7832;BME280;3961;42.058;25.586;2022-08-18T09:44:02;66394.47;;;36.37;31.58
7832;BME280;3961;42.058;25.586;2022-08-18T09:57:37;66437.38;;;36.76;30.69
7832;BME280;3961;42.058;25.586;2022-08-18T10:10:50;66506.81;;;37.36;30.04
7832;BME280;3961;42.058;25.586;2022-08-18T10:25:11;66475.72;;;37.07;29.89
7832;BME280;3961;42.058;25.586;2022-08-18T10:32:59;66452.81;;;36.89;30.88
7832;BME280;3961;42.058;25.586;2022-08-18T10:38:37;66507.22;;;37.33;30.28
7832;BME280;3961;42.058;25.586;2022-08-18T10:41:12;66500.50;;;37.32;29.55
7832;BME280;3961;42.058;25.586;2022-08-18T10:43:46;66512.16;;;37.40;30.06
7832;BME280;3961;42.058;25.586;2022-08-18T10:46:40;66521.44;;;37.46;30.27
7832;BME280;3961;42.058;25.586;2022-08-18T10:49:16;66468.84;;;37.03;29.89
7832;BME280;3961;42.058;25.586;2022-08-18T10:59:53;66505.22;;;37.37;29.29
7832;BME280;3961;42.058;25.586;2022-08-18T11:03:11;66509.00;;;37.35;29.85
7832;BME280;3961;42.058;25.586;2022-08-18T11:05:41;66502.66;;;37.32;29.96
7832;BME280;3961;42.058;25.586;2022-08-18T11:08:13;66526.19;;;37.50;30.16
7832;BME280;3961;42.058;25.586;2022-08-18T11:10:43;66491.97;;;37.23;29.89
7832;BME280;3961;42.058;25.586;2022-08-18T11:13:30;66451.03;;;36.88;29.98
7832;BME280;3961;42.058;25.586;2022-08-18T11:18:46;66465.88;;;37.00;30.05
7832;BME280;3961;42.058;25.586;2022-08-18T11:21:45;66495.75;;;37.21;30.16
7832;BME280;3961;42.058;25.586;2022-08-18T11:24:18;66521.66;;;37.48;29.60
7832;BME280;3961;42.058;25.586;2022-08-18T11:26:52;66548.38;;;37.71;29.31
7832;BME280;3961;42.058;25.586;2022-08-18T11:29:26;66537.09;;;37.61;29.41
7832;BME280;3961;42.058;25.586;2022-08-18T11:32:06;66544.00;;;37.65;29.62
7832;BME280;3961;42.058;25.586;2022-08-18T11:37:43;66461.91;;;36.92;29.07
7832;BME280;3961;42.058;25.586;2022-08-18T11:40:32;66398.81;;;36.43;29.53
7832;BME280;3961;42.058;25.586;2022-08-18T11:43:09;66402.16;;;36.44;29.47
7832;BME280;3961;42.058;25.586;2022-08-18T11:45:49;66387.16;;;36.28;29.77
7832;BME280;3961;42.058;25.586;2022-08-18T11:53:50;66287.16;;;35.45;30.42
7832;BME280;3961;42.058;25.586;2022-08-18T12:06:58;66269.00;;;35.32;30.51
7832;BME280;3961;42.058;25.586;2022-08-18T12:09:38;66262.25;;;35.24;31.25
7832;BME280;3961;42.058;25.586;2022-08-18T12:17:21;66294.84;;;35.52;31.46
7832;BME280;3961;42.058;25.586;2022-08-18T12:19:47;66290.31;;;35.50;30.75
7832;BME280;3961;42.058;25.586;2022-08-18T12:22:19;66293.28;;;35.53;30.87
7832;BME280;3961;42.058;25.586;2022-08-18T12:24:45;66322.31;;;35.78;30.82
7832;BME280;3961;42.058;25.586;2022-08-18T12:27:17;66312.63;;;35.67;31.25
7832;BME280;3961;42.058;25.586;2022-08-18T12:29:43;66302.97;;;35.63;30.87
7832;BME280;3961;42.058;25.586;2022-08-18T12:32:10;66292.88;;;35.55;31.17
7832;BME280;3961;42.058;25.586;2022-08-18T12:34:35;66293.66;;;35.51;31.05
7832;BME280;3961;42.058;25.586;2022-08-18T12:37:01;66277.88;;;35.40;30.89
7832;BME280;3961;42.058;25.586;2022-08-18T12:39:29;66294.25;;;35.51;31.30
7832;BME280;3961;42.058;25.586;2022-08-18T12:41:56;66302.38;;;35.63;30.71
7832;BME280;3961;42.058;25.586;2022-08-18T12:44:21;66301.56;;;35.60;31.22
7832;BME280;3961;42.058;25.586;2022-08-18T12:46:47;66306.13;;;35.61;30.91
7832;BME280;3961;42.058;25.586;2022-08-18T12:49:18;66325.88;;;35.81;30.77
7832;BME280;3961;42.058;25.586;2022-08-18T12:51:44;66349.00;;;36.00;31.22
7832;BME280;3961;42.058;25.586;2022-08-18T12:54:10;66364.81;;;36.12;30.76
7832;BME280;3961;42.058;25.586;2022-08-18T12:56:35;66393.06;;;36.41;29.96
7832;BME280;3961;42.058;25.586;2022-08-18T12:59:04;66407.13;;;36.50;30.00
7832;BME280;3961;42.058;25.586;2022-08-18T13:01:30;66415.22;;;36.55;30.49
7832;BME280;3961;42.058;25.586;2022-08-18T13:03:56;66425.13;;;36.68;30.02
7832;BME280;3961;42.058;25.586;2022-08-18T13:06:24;66443.91;;;36.82;29.71
7832;BME280;3961;42.058;25.586;2022-08-18T13:08:50;66456.56;;;36.88;29.11
7832;BME280;3961;42.058;25.586;2022-08-18T13:11:18;66442.72;;;36.81;29.69
7832;BME280;3961;42.058;25.586;2022-08-18T13:13:44;66428.47;;;36.68;30.29
7832;BME280;3961;42.058;25.586;2022-08-18T13:16:11;66435.00;;;36.74;29.77
7832;BME280;3961;42.058;25.586;2022-08-18T13:18:38;66434.78;;;36.72;29.52
7832;BME280;3961;42.058;25.586;2022-08-18T13:21:08;66437.97;;;36.77;29.34
7832;BME280;3961;42.058;25.586;2022-08-18T13:23:35;66425.13;;;36.68;29.64
7832;BME280;3961;42.058;25.586;2022-08-18T13:26:03;66427.88;;;36.68;30.06
7832;BME280;3961;42.058;25.586;2022-08-18T13:28:31;66416.41;;;36.56;29.47
7832;BME280;3961;42.058;25.586;2022-08-18T13:30:58;66405.13;;;36.46;29.70
7832;BME280;3961;42.058;25.586;2022-08-18T13:33:23;66373.50;;;36.24;30.02
7832;BME280;3961;42.058;25.586;2022-08-18T13:35:50;66374.31;;;36.27;30.68
7832;BME280;3961;42.058;25.586;2022-08-18T13:38:16;66390.72;;;36.31;30.43
7832;BME280;3961;42.058;25.586;2022-08-18T13:40:48;66381.63;;;36.28;30.34
7832;BME280;3961;42.058;25.586;2022-08-18T13:43:15;66367.56;;;36.19;30.32
7832;BME280;3961;42.058;25.586;2022-08-18T13:45:41;66360.66;;;36.08;30.24
7832;BME280;3961;42.058;25.586;2022-08-18T13:48:09;66337.53;;;35.88;30.62
7832;BME280;3961;42.058;25.586;2022-08-18T13:50:36;66323.69;;;35.74;30.64
7832;BME280;3961;42.058;25.586;2022-08-18T13:53:13;66333.78;;;35.90;31.47
7832;BME280;3961;42.058;25.586;2022-08-18T13:55:39;66316.81;;;35.78;30.84
7832;BME280;3961;42.058;25.586;2022-08-18T13:58:05;66322.31;;;35.78;31.01
7832;BME280;3961;42.058;25.586;2022-08-18T14:00:32;66286.38;;;35.49;30.88
7832;BME280;3961;42.058;25.586;2022-08-18T14:02:59;66312.03;;;35.66;30.97
7832;BME280;3961;42.058;25.586;2022-08-18T14:05:25;66306.72;;;35.62;31.39
7832;BME280;3961;42.058;25.586;2022-08-18T14:07:53;66286.16;;;35.47;31.44
7832;BME280;3961;42.058;25.586;2022-08-18T14:10:18;66278.66;;;35.43;31.55
7832;BME280;3961;42.058;25.586;2022-08-18T14:12:45;66269.59;;;35.32;31.37
7832;BME280;3961;42.058;25.586;2022-08-18T14:15:13;66267.81;;;35.31;31.18
7832;BME280;3961;42.058;25.586;2022-08-18T14:17:39;66261.88;;;35.26;31.48
7832;BME280;3961;42.058;25.586;2022-08-18T14:20:07;66268.22;;;35.29;31.93
7832;BME280;3961;42.058;25.586;2022-08-18T14:22:54;66269.00;;;35.32;31.39
7832;BME280;3961;42.058;25.586;2022-08-18T14:25:39;66261.88;;;35.26;31.52
7832;BME280;3961;42.058;25.586;2022-08-18T14:28:23;66256.53;;;35.21;32.55
7832;BME280;3961;42.058;25.586;2022-08-18T14:30:49;66248.84;;;35.15;31.98
7832;BME280;3961;42.058;25.586;2022-08-18T14:33:19;66246.47;;;35.13;32.09
7832;BME280;3961;42.058;25.586;2022-08-18T14:35:46;66245.50;;;35.07;32.06
7832;BME280;3961;42.058;25.586;2022-08-18T14:38:13;66238.78;;;35.06;32.86
7832;BME280;3961;42.058;25.586;2022-08-18T14:40:43;66234.03;;;35.02;32.55
7832;BME280;3961;42.058;25.586;2022-08-18T14:43:12;66233.66;;;35.04;32.98
7832;BME280;3961;42.058;25.586;2022-08-18T14:45:39;66244.69;;;35.11;32.09
7832;BME280;3961;42.058;25.586;2022-08-18T14:48:14;66214.09;;;34.87;32.49
7832;BME280;3961;42.058;25.586;2022-08-18T14:50:41;66227.72;;;34.99;32.42
7832;BME280;3961;42.058;25.586;2022-08-18T14:53:08;66224.16;;;34.96;32.11
7832;BME280;3961;42.058;25.586;2022-08-18T14:55:34;66233.66;;;35.04;32.19
7832;BME280;3961;42.058;25.586;2022-08-18T14:58:02;66228.13;;;34.97;31.84
7832;BME280;3961;42.058;25.586;2022-08-18T15:00:28;66247.44;;;35.11;32.50
7832;BME280;3961;42.058;25.586;2022-08-18T15:02:54;66212.72;;;34.84;31.83
7832;BME280;3961;42.058;25.586;2022-08-18T15:05:22;66247.25;;;35.09;31.53
7832;BME280;3961;42.058;25.586;2022-08-18T15:07:47;66238.19;;;35.06;32.14
7832;BME280;3961;42.058;25.586;2022-08-18T15:10:13;66251.78;;;35.17;32.20
7832;BME280;3961;42.058;25.586;2022-08-18T15:12:40;66252.78;;;35.16;32.11
7832;BME280;3961;42.058;25.586;2022-08-18T15:15:09;66246.84;;;35.11;32.20
7832;BME280;3961;42.058;25.586;2022-08-18T15:17:37;66243.91;;;35.08;31.94
7832;BME280;3961;42.058;25.586;2022-08-18T15:20:05;66253.78;;;35.21;31.48
7832;BME280;3961;42.058;25.586;2022-08-18T15:22:31;66261.66;;;35.23;31.95
7832;BME280;3961;42.058;25.586;2022-08-18T15:25:15;66268.56;;;35.27;32.01
7832;BME280;3961;42.058;25.586;2022-08-18T15:28:00;66257.91;;;35.25;32.41
7832;BME280;3961;42.058;25.586;2022-08-18T15:30:26;66257.91;;;35.25;32.60
7832;BME280;3961;42.058;25.586;2022-08-18T15:32:51;66255.94;;;35.21;33.15
7832;BME280;3961;42.058;25.586;2022-08-18T15:35:18;66240.16;;;35.10;32.51
7832;BME280;3961;42.058;25.586;2022-08-18T15:37:44;66222.59;;;34.90;32.46
7832;BME280;3961;42.058;25.586;2022-08-18T15:40:17;66209.16;;;34.81;33.62
7832;BME280;3961;42.058;25.586;2022-08-18T15:42:51;66197.50;;;34.66;33.73
7832;BME280;3961;42.058;25.586;2022-08-18T15:45:23;66193.16;;;34.67;33.50
7832;BME280;3961;42.058;25.586;2022-08-18T15:47:53;66175.78;;;34.50;33.69
7832;BME280;3961;42.058;25.586;2022-08-18T15:50:19;66164.75;;;34.43;33.74
7832;BME280;3961;42.058;25.586;2022-08-18T15:52:51;66156.09;;;34.38;34.65
7832;BME280;3961;42.058;25.586;2022-08-18T15:55:19;66157.44;;;34.34;34.31
7832;BME280;3961;42.058;25.586;2022-08-18T15:57:45;66145.41;;;34.28;34.20
7832;BME280;3961;42.058;25.586;2022-08-18T16:00:13;66142.63;;;34.21;34.47
7832;BME280;3961;42.058;25.586;2022-08-18T16:02:47;66142.81;;;34.24;34.89
7832;BME280;3961;42.058;25.586;2022-08-18T16:05:13;66150.16;;;34.32;34.41
7832;BME280;3961;42.058;25.586;2022-08-18T16:07:39;66153.91;;;34.31;34.63
7832;BME280;3961;42.058;25.586;2022-08-18T16:10:08;66137.50;;;34.19;35.11
7832;BME280;3961;42.058;25.586;2022-08-18T16:12:34;66136.13;;;34.16;35.26
7832;BME280;3961;42.058;25.586;2022-08-18T16:14:59;66130.59;;;34.09;35.73
7832;BME280;3961;42.058;25.586;2022-08-18T16:17:28;66119.75;;;34.04;35.61
7832;BME280;3961;42.058;25.586;2022-08-18T16:19:54;66098.06;;;33.88;35.91